Kezdőlap
METAR-TAF:

METAR-TAF

Repülőterek :

RAF

Holbeach, Anglia

földrajzi szélesség: 52-52N, földrajzi hosszúság: 000-09E, magasság: 3 m

Jelenlegi meteorológiai megfigyelések

A jelentés 5 órával és 22 perccel ezelõtt készült, 10:50 UTC
Nyugat-délnyugati szél 17 kt
Hőmérséklet 11°C
Páratartalom 100%
Légköri nyomás 1000 hPa
Látótávolság 10 km, vagy több
Szakadozott felhőzet 600 lábon
Borult 1800 lábon
enyhe szitálás

METAR: EGYH 061050Z 24017KT 9999 -DZ BKN006 OVC018 11/11 Q1000 RMK YLO1

Idő: 16:12 (16:12 UTC)


TAF: hiányzik

Meteorológiai megfigyelések és előrejelzések több, mint 4000 repülőtéren (METAR és TAF jelentéseket).

A térképen piros és sárga pontok jelzik az elérhető meteorológiai állomásokat.

Mozgassa az egeret a pont fölött, hogy megjelenjen az állomás neve.

Azután kattintson az időjárási megfigyelések és előrejelzések megtekintéséhez.

A térkép megváltoztatása: kattintson a fekete keresztel jelölt zöld gombra ráközelítéshez, a vonallal jelölt zöld gombra távolításhoz, vagy a zöld nyilakra a szomszédos térképek eléréséhez.


METAR-TAF: